createdAt,value
2018-09-06T00:00:50.523Z,14.00
2018-09-06T00:03:21.170Z,13.10
2018-09-06T00:05:51.777Z,14.03
2018-09-06T00:08:22.550Z,13.90
2018-09-06T00:10:54.097Z,14.07
2018-09-06T00:13:24.708Z,13.77
2018-09-06T00:15:55.297Z,13.87
2018-09-06T00:18:26.006Z,13.30
2018-09-06T00:20:56.795Z,14.20
2018-09-06T00:23:27.084Z,13.17
2018-09-06T00:25:57.485Z,14.43
2018-09-06T00:28:27.896Z,14.70
2018-09-06T00:30:58.337Z,14.00
2018-09-06T00:33:28.877Z,14.10
2018-09-06T00:35:59.738Z,13.87
2018-09-06T00:38:30.351Z,13.83
2018-09-06T00:41:00.637Z,12.67
2018-09-06T00:43:31.267Z,14.13
2018-09-06T00:46:03.307Z,14.60
2018-09-06T00:48:33.699Z,13.93
2018-09-06T00:51:04.295Z,14.37
2018-09-06T00:53:35.170Z,14.13
2018-09-06T00:56:06.195Z,14.30
2018-09-06T00:58:36.574Z,14.83
2018-09-06T01:01:07.042Z,13.40
2018-09-06T01:03:41.468Z,13.40
2018-09-06T01:06:12.030Z,15.20
2018-09-06T01:08:42.619Z,13.47
2018-09-06T01:11:13.290Z,15.07
2018-09-06T01:13:44.209Z,14.13
2018-09-06T01:16:14.837Z,14.93
2018-09-06T01:18:45.415Z,14.33
2018-09-06T01:21:15.968Z,14.10
2018-09-06T01:23:46.265Z,14.20
2018-09-06T01:26:16.896Z,13.90
2018-09-06T01:28:47.464Z,13.30
2018-09-06T01:31:19.027Z,14.60
2018-09-06T01:33:49.569Z,13.97
2018-09-06T01:36:25.223Z,15.00
2018-09-06T01:38:55.583Z,13.20
2018-09-06T01:41:26.119Z,13.70
2018-09-06T01:43:56.674Z,14.83
2018-09-06T01:46:27.614Z,14.63
2018-09-06T01:48:58.696Z,14.83
2018-09-06T01:51:29.304Z,15.03
2018-09-06T01:54:00.041Z,15.20
2018-09-06T01:56:31.267Z,14.93
2018-09-06T01:59:01.857Z,14.73
2018-09-06T02:01:33.484Z,14.90
2018-09-06T02:04:04.404Z,13.70
2018-09-06T02:06:34.971Z,14.90
2018-09-06T02:09:08.529Z,14.07
2018-09-06T02:11:40.867Z,14.73
2018-09-06T02:14:11.481Z,15.07
2018-09-06T02:16:42.970Z,14.03
2018-09-06T02:19:13.662Z,13.40
2018-09-06T02:21:45.644Z,14.17
2018-09-06T02:24:16.267Z,14.60
2018-09-06T02:26:47.164Z,15.90
2018-09-06T02:29:17.763Z,13.50
2018-09-06T02:31:48.399Z,13.13
2018-09-06T02:34:19.351Z,15.63
2018-09-06T02:36:49.914Z,14.33
2018-09-06T02:39:20.558Z,14.93
2018-09-06T02:41:51.128Z,14.67
2018-09-06T02:44:21.888Z,13.80
2018-09-06T02:46:52.478Z,15.00
2018-09-06T02:49:28.344Z,16.60
2018-09-06T02:51:58.609Z,14.90
2018-09-06T02:54:29.186Z,15.50
2018-09-06T02:56:59.475Z,14.00
2018-09-06T02:59:30.832Z,15.73
2018-09-06T03:02:01.505Z,15.53
2018-09-06T03:04:32.452Z,15.60
2018-09-06T03:07:03.188Z,14.73
2018-09-06T03:09:33.772Z,14.33
2018-09-06T03:12:06.599Z,14.93
2018-09-06T03:14:36.926Z,15.67
2018-09-06T03:17:07.531Z,15.60
2018-09-06T03:19:38.399Z,15.93
2018-09-06T03:22:09.289Z,15.97
2018-09-06T03:24:39.823Z,14.87
2018-09-06T03:27:10.736Z,14.93
2018-09-06T03:29:41.000Z,15.57
2018-09-06T03:32:12.397Z,15.43
2018-09-06T03:34:43.460Z,15.87
2018-09-06T03:37:13.980Z,13.80
2018-09-06T03:39:48.195Z,14.77
2018-09-06T03:42:18.948Z,14.70
2018-09-06T03:44:49.333Z,15.43
2018-09-06T03:47:19.903Z,13.50
2018-09-06T03:49:50.201Z,13.53
2018-09-06T03:52:20.741Z,16.03
2018-09-06T03:54:51.348Z,13.47
2018-09-06T03:57:21.893Z,15.30
2018-09-06T03:59:52.540Z,13.67
2018-09-06T04:02:23.269Z,16.70
2018-09-06T04:04:53.580Z,15.57
2018-09-06T04:07:30.407Z,16.90
2018-09-06T04:10:01.579Z,16.17
2018-09-06T04:12:41.680Z,16.10
2018-09-06T04:15:15.510Z,15.23
2018-09-06T04:17:46.249Z,16.20
2018-09-06T04:20:17.160Z,15.80
2018-09-06T04:22:51.272Z,14.17
2018-09-06T04:25:21.815Z,15.57
2018-09-06T04:27:52.373Z,17.80
2018-09-06T04:30:22.960Z,17.20
2018-09-06T04:32:53.624Z,18.10
2018-09-06T04:35:24.050Z,16.93
2018-09-06T04:37:55.687Z,17.83
2018-09-06T04:40:26.336Z,17.80
2018-09-06T04:42:56.960Z,19.23
2018-09-06T04:45:27.262Z,18.30
2018-09-06T04:47:57.880Z,17.90
2018-09-06T04:50:28.554Z,17.50
2018-09-06T04:52:58.805Z,17.20
2018-09-06T04:55:29.287Z,17.03
2018-09-06T04:58:00.140Z,17.97
2018-09-06T05:00:31.737Z,18.57
2018-09-06T05:03:02.457Z,18.17
2018-09-06T05:05:32.833Z,17.70
2018-09-06T05:08:03.474Z,17.40
2018-09-06T05:10:34.156Z,18.60
2018-09-06T05:13:04.730Z,17.77
2018-09-06T05:15:35.476Z,18.57
2018-09-06T05:18:07.176Z,19.03
2018-09-06T05:20:37.884Z,19.00
2018-09-06T05:23:08.204Z,18.90
2018-09-06T05:25:38.768Z,19.60
2018-09-06T05:28:09.400Z,19.40
2018-09-06T05:30:40.297Z,17.70
2018-09-06T05:33:10.726Z,19.00
2018-09-06T05:35:41.263Z,18.77
2018-09-06T05:38:11.555Z,16.57
2018-09-06T05:40:42.190Z,16.90
2018-09-06T05:43:12.707Z,16.77
2018-09-06T05:45:43.975Z,16.77
2018-09-06T05:48:14.476Z,17.53
2018-09-06T05:50:45.160Z,18.20
2018-09-06T05:53:15.692Z,17.20
2018-09-06T05:55:46.636Z,18.43
2018-09-06T05:58:17.410Z,18.07
2018-09-06T06:00:49.365Z,17.60
2018-09-06T06:03:20.102Z,17.33
2018-09-06T06:05:50.454Z,15.93
2018-09-06T06:08:32.024Z,18.80
2018-09-06T06:11:02.461Z,16.97
2018-09-06T06:13:33.054Z,16.80
2018-09-06T06:16:03.745Z,16.00
2018-09-06T06:18:34.248Z,17.00
2018-09-06T06:21:05.129Z,15.90
2018-09-06T06:23:35.747Z,16.93
2018-09-06T06:26:06.990Z,16.90
2018-09-06T06:28:37.404Z,15.30
2018-09-06T06:31:07.965Z,16.67
2018-09-06T06:33:38.409Z,16.23
2018-09-06T06:36:08.703Z,16.20
2018-09-06T06:38:39.229Z,15.70
2018-09-06T06:41:10.241Z,16.17
2018-09-06T06:43:41.076Z,14.87
2018-09-06T06:46:11.591Z,16.30
2018-09-06T06:48:42.126Z,16.63
2018-09-06T06:51:12.768Z,16.50
2018-09-06T06:53:44.348Z,15.03
2018-09-06T06:56:14.882Z,16.80
2018-09-06T06:58:45.392Z,15.60
2018-09-06T07:01:15.975Z,15.00
2018-09-06T07:03:46.505Z,15.63
2018-09-06T07:06:16.980Z,17.00
2018-09-06T07:08:47.195Z,13.83
2018-09-06T07:11:17.736Z,15.40
2018-09-06T07:13:48.249Z,15.17
2018-09-06T07:16:18.921Z,17.83
2018-09-06T07:18:49.256Z,17.17
2018-09-06T07:21:19.892Z,16.97
2018-09-06T07:23:50.415Z,16.27
2018-09-06T07:26:20.941Z,18.20
2018-09-06T07:28:51.203Z,16.23
2018-09-06T07:31:22.004Z,17.47
2018-09-06T07:33:52.976Z,19.73
2018-09-06T07:36:23.909Z,16.43
2018-09-06T07:38:54.204Z,16.47
2018-09-06T07:41:24.494Z,15.70
2018-09-06T07:43:59.050Z,13.87
2018-09-06T07:46:29.340Z,12.30
2018-09-06T07:48:59.587Z,14.13
2018-09-06T07:51:31.832Z,15.37
2018-09-06T07:54:02.531Z,14.00
2018-09-06T07:56:33.208Z,14.40
2018-09-06T07:59:03.764Z,16.23
2018-09-06T08:01:34.432Z,13.20
2018-09-06T08:04:05.014Z,16.13
2018-09-06T08:06:35.352Z,18.97
2018-09-06T08:09:09.195Z,15.23
2018-09-06T08:11:40.089Z,14.47
2018-09-06T08:14:10.639Z,13.30
2018-09-06T08:16:41.244Z,14.13
2018-09-06T08:19:12.527Z,14.40
2018-09-06T08:21:43.417Z,13.23
2018-09-06T08:24:14.242Z,13.50
2018-09-06T08:26:46.141Z,14.23
2018-09-06T08:29:16.865Z,14.43
2018-09-06T08:31:47.086Z,14.20
2018-09-06T08:34:17.694Z,14.33
2018-09-06T08:36:47.988Z,16.50
2018-09-06T08:39:18.372Z,14.40
2018-09-06T08:41:48.880Z,13.50
2018-09-06T08:44:19.556Z,13.10
2018-09-06T08:46:50.158Z,14.47
2018-09-06T08:49:20.693Z,14.77
2018-09-06T08:51:50.985Z,14.27
2018-09-06T08:54:21.389Z,14.83
2018-09-06T08:56:51.953Z,15.03
2018-09-06T08:59:22.641Z,14.67
2018-09-06T09:01:53.177Z,13.43
2018-09-06T09:04:24.146Z,13.03
2018-09-06T09:06:55.269Z,11.97
2018-09-06T09:09:25.551Z,12.73
2018-09-06T09:11:57.417Z,11.37
2018-09-06T09:14:27.943Z,11.13
2018-09-06T09:16:58.728Z,12.70
2018-09-06T09:19:30.982Z,12.70
2018-09-06T09:22:04.496Z,12.77
2018-09-06T09:24:35.232Z,10.53
2018-09-06T09:27:06.528Z,11.23
2018-09-06T09:29:36.872Z,11.63
2018-09-06T09:32:07.820Z,11.10
2018-09-06T09:34:38.084Z,11.03
2018-09-06T09:37:09.644Z,11.70
2018-09-06T09:39:40.372Z,10.70
2018-09-06T09:42:10.967Z,15.23
2018-09-06T09:44:41.599Z,11.00
2018-09-06T09:49:41.837Z,11.77
2018-09-06T09:52:12.324Z,10.33
2018-09-06T09:54:42.912Z,10.50
2018-09-06T09:57:13.236Z,11.50
2018-09-06T09:59:43.835Z,10.10
2018-09-06T10:02:19.396Z,11.97
2018-09-06T10:04:56.467Z,11.33
2018-09-06T10:07:32.312Z,9.50
2018-09-06T10:10:02.831Z,9.60
2018-09-06T10:12:38.615Z,10.90
2018-09-06T10:15:14.833Z,9.50
2018-09-06T10:17:45.792Z,9.10
2018-09-06T10:20:16.303Z,8.87
2018-09-06T10:22:48.192Z,11.97
2018-09-06T10:25:18.684Z,9.97
2018-09-06T10:27:49.322Z,9.00
2018-09-06T10:30:21.323Z,8.20
2018-09-06T10:32:52.332Z,9.00
2018-09-06T10:35:22.896Z,9.00
2018-09-06T10:37:53.951Z,9.63
2018-09-06T10:40:25.115Z,9.50
2018-09-06T10:42:56.144Z,9.30
2018-09-06T10:45:26.923Z,9.70
2018-09-06T10:47:57.869Z,9.30
2018-09-06T10:50:29.343Z,9.70
2018-09-06T10:52:59.848Z,9.70
2018-09-06T10:55:31.219Z,9.73
2018-09-06T10:58:02.156Z,10.57
2018-09-06T11:00:32.948Z,10.80
2018-09-06T11:03:03.696Z,9.90
2018-09-06T11:05:33.948Z,10.33
2018-09-06T11:08:04.365Z,10.77
2018-09-06T11:10:34.744Z,11.07
2018-09-06T11:13:05.015Z,11.10
2018-09-06T11:15:35.540Z,11.57
2018-09-06T11:18:05.833Z,10.80
2018-09-06T11:20:36.580Z,10.10
2018-09-06T11:23:06.883Z,12.30
2018-09-06T11:25:37.561Z,10.77
2018-09-06T11:28:08.804Z,11.67
2018-09-06T11:30:39.497Z,16.27
2018-09-06T11:33:09.973Z,9.90
2018-09-06T11:35:40.515Z,12.77
2018-09-06T11:38:10.818Z,11.20
2018-09-06T11:40:41.463Z,11.30
2018-09-06T11:43:11.759Z,11.03
2018-09-06T11:45:42.319Z,10.93
2018-09-06T11:48:12.728Z,10.47
2018-09-06T11:50:43.043Z,11.93
2018-09-06T11:53:13.372Z,10.20
2018-09-06T11:55:44.352Z,12.10
2018-09-06T11:58:14.597Z,11.40
2018-09-06T12:00:45.699Z,9.20
2018-09-06T12:03:16.286Z,10.17
2018-09-06T12:05:46.538Z,11.17
2018-09-06T12:08:31.640Z,11.30
2018-09-06T12:11:02.195Z,10.50
2018-09-06T12:13:32.725Z,10.77
2018-09-06T12:16:03.308Z,10.37
2018-09-06T12:18:33.551Z,11.00
2018-09-06T12:21:03.847Z,10.60
2018-09-06T12:23:34.376Z,11.30
2018-09-06T12:26:04.916Z,10.90
2018-09-06T12:28:35.425Z,10.90
2018-09-06T12:31:06.632Z,11.37
2018-09-06T12:33:37.210Z,11.33
2018-09-06T12:36:08.271Z,11.13
2018-09-06T12:38:39.397Z,10.77
2018-09-06T12:41:10.624Z,9.43
2018-09-06T12:43:41.189Z,9.90
2018-09-06T12:46:12.231Z,10.00
2018-09-06T12:48:43.256Z,9.43
2018-09-06T12:51:13.813Z,11.00
2018-09-06T12:53:44.867Z,10.77
2018-09-06T12:56:15.404Z,10.53
2018-09-06T12:58:46.936Z,9.30
2018-09-06T13:01:17.205Z,12.43
2018-09-06T13:03:47.479Z,9.60
2018-09-06T13:06:18.087Z,9.80
2018-09-06T13:08:48.819Z,10.27
2018-09-06T13:11:19.489Z,10.33
2018-09-06T13:13:50.071Z,10.53
2018-09-06T13:16:20.960Z,10.50
2018-09-06T13:18:51.276Z,9.60
2018-09-06T13:21:21.939Z,10.07
2018-09-06T13:23:52.487Z,10.57
2018-09-06T13:26:23.089Z,10.50
2018-09-06T13:28:53.875Z,9.63
2018-09-06T13:31:24.509Z,9.87
2018-09-06T13:33:55.806Z,10.90
2018-09-06T13:36:26.326Z,9.60
2018-09-06T13:38:56.994Z,10.83
2018-09-06T13:41:27.528Z,10.27
2018-09-06T13:43:57.784Z,9.90
2018-09-06T13:46:28.305Z,11.80
2018-09-06T13:48:59.598Z,10.40
2018-09-06T13:51:29.887Z,10.20
2018-09-06T13:54:00.392Z,10.00
2018-09-06T13:56:32.486Z,9.87
2018-09-06T13:59:02.878Z,10.00
2018-09-06T14:01:33.501Z,9.20
2018-09-06T14:04:03.837Z,9.87
2018-09-06T14:06:34.122Z,9.63
2018-09-06T14:09:05.144Z,9.90
2018-09-06T14:11:36.842Z,8.37
2018-09-06T14:14:07.250Z,10.70
2018-09-06T14:16:37.659Z,10.13
2018-09-06T14:19:08.414Z,9.93
2018-09-06T14:21:40.138Z,9.07
2018-09-06T14:24:10.570Z,9.43
2018-09-06T14:26:41.252Z,10.03
2018-09-06T14:29:11.895Z,9.50
2018-09-06T14:31:42.432Z,9.50
2018-09-06T14:34:13.035Z,10.73
2018-09-06T14:36:43.342Z,9.33
2018-09-06T14:39:14.233Z,9.40
2018-09-06T14:41:44.801Z,9.13
2018-09-06T14:44:15.063Z,10.70
2018-09-06T14:46:45.359Z,13.20
2018-09-06T14:49:15.924Z,9.93
2018-09-06T14:51:46.484Z,9.37
2018-09-06T14:54:16.898Z,9.70
2018-09-06T14:56:47.314Z,8.87
2018-09-06T14:59:17.968Z,9.90
2018-09-06T15:01:48.565Z,9.03
2018-09-06T15:04:19.123Z,9.23
2018-09-06T15:06:49.690Z,9.67
2018-09-06T15:09:20.263Z,10.37
2018-09-06T15:11:51.286Z,7.90
2018-09-06T15:14:21.616Z,9.83
2018-09-06T15:16:52.139Z,8.77
2018-09-06T15:19:22.486Z,10.70
2018-09-06T15:21:53.159Z,10.17
2018-09-06T15:24:23.805Z,9.80
2018-09-06T15:26:54.363Z,10.77
2018-09-06T15:29:25.629Z,10.67
2018-09-06T15:31:56.238Z,9.43
2018-09-06T15:34:26.830Z,10.60
2018-09-06T15:36:57.625Z,9.97
2018-09-06T15:39:28.171Z,9.93
2018-09-06T15:42:00.232Z,9.27
2018-09-06T15:44:30.541Z,9.47
2018-09-06T15:47:01.107Z,9.27
2018-09-06T15:49:31.463Z,10.77
2018-09-06T15:52:03.038Z,9.23
2018-09-06T15:54:33.277Z,8.73
2018-09-06T15:57:03.844Z,9.07
2018-09-06T15:59:34.391Z,8.90
2018-09-06T16:02:05.318Z,11.40
2018-09-06T16:04:35.612Z,10.37
2018-09-06T16:07:05.861Z,10.03
2018-09-06T16:09:36.193Z,8.90
2018-09-06T16:12:06.924Z,10.53
2018-09-06T16:14:37.764Z,9.33
2018-09-06T16:17:08.689Z,9.00
2018-09-06T16:19:39.163Z,8.97
2018-09-06T16:22:09.835Z,10.37
2018-09-06T16:24:40.222Z,10.27
2018-09-06T16:27:10.608Z,8.97
2018-09-06T16:29:41.482Z,10.07
2018-09-06T16:32:12.096Z,8.93
2018-09-06T16:34:42.720Z,9.23
2018-09-06T16:37:13.075Z,8.67
2018-09-06T16:39:44.314Z,10.20
2018-09-06T16:42:14.860Z,10.37
2018-09-06T16:44:46.388Z,8.70
2018-09-06T16:47:16.913Z,8.10
2018-09-06T16:49:47.420Z,10.10
2018-09-06T16:52:17.994Z,9.43
2018-09-06T16:54:48.310Z,9.70
2018-09-06T16:57:18.855Z,9.10
2018-09-06T16:59:49.471Z,9.13
2018-09-06T17:02:20.073Z,8.27
2018-09-06T17:04:50.649Z,8.50
2018-09-06T17:07:20.956Z,8.10
2018-09-06T17:09:51.540Z,9.63
2018-09-06T17:12:21.753Z,8.93
2018-09-06T17:14:52.319Z,8.90
2018-09-06T17:17:22.867Z,9.20
2018-09-06T17:19:53.474Z,10.27
2018-09-06T17:22:24.170Z,9.77
2018-09-06T17:24:54.712Z,8.23
2018-09-06T17:27:25.377Z,10.27
2018-09-06T17:29:56.935Z,9.13
2018-09-06T17:32:27.556Z,9.67
2018-09-06T17:34:58.244Z,10.27
2018-09-06T17:37:28.783Z,10.00
2018-09-06T17:39:59.213Z,10.17
2018-09-06T17:42:31.052Z,10.13
2018-09-06T17:45:01.807Z,8.97
2018-09-06T17:47:45.769Z,10.40
2018-09-06T17:50:16.556Z,10.13
2018-09-06T17:52:47.087Z,10.50
2018-09-06T17:55:17.056Z,10.20
2018-09-06T17:57:47.184Z,10.47
2018-09-06T18:00:17.818Z,9.77
2018-09-06T18:02:48.366Z,10.50
2018-09-06T18:05:18.972Z,10.23
2018-09-06T18:07:49.200Z,10.97
2018-09-06T18:10:19.831Z,11.10
2018-09-06T18:12:50.451Z,11.27
2018-09-06T18:15:20.967Z,11.27
2018-09-06T18:17:52.127Z,9.93
2018-09-06T18:20:23.172Z,11.90
2018-09-06T18:22:53.464Z,10.93
2018-09-06T18:25:24.351Z,11.47
2018-09-06T18:27:54.623Z,11.73
2018-09-06T18:30:25.320Z,12.80
2018-09-06T18:32:55.952Z,12.30
2018-09-06T18:35:26.300Z,12.00
2018-09-06T18:37:56.776Z,14.60
2018-09-06T18:40:27.412Z,13.63
2018-09-06T18:42:57.988Z,15.17
2018-09-06T18:45:29.298Z,15.00
2018-09-06T18:48:00.152Z,15.93
2018-09-06T18:50:30.552Z,14.20
2018-09-06T18:53:01.129Z,14.07
2018-09-06T18:55:32.563Z,14.57
2018-09-06T18:58:03.571Z,12.27
2018-09-06T19:00:34.171Z,11.30
2018-09-06T19:03:04.761Z,13.00
2018-09-06T19:05:35.267Z,13.13
2018-09-06T19:08:05.878Z,12.20
2018-09-06T19:10:36.481Z,14.73
2018-09-06T19:13:07.391Z,14.87
2018-09-06T19:15:38.868Z,14.43
2018-09-06T19:18:09.180Z,14.03
2018-09-06T19:20:39.812Z,13.80
2018-09-06T19:23:10.343Z,14.47
2018-09-06T19:25:40.670Z,15.10
2018-09-06T19:28:11.220Z,13.40
2018-09-06T19:30:42.011Z,14.07
2018-09-06T19:33:13.321Z,14.13
2018-09-06T19:35:44.571Z,12.90
2018-09-06T19:38:15.148Z,13.93
2018-09-06T19:40:45.667Z,14.10
2018-09-06T19:43:16.225Z,14.73
2018-09-06T19:45:46.968Z,14.43
2018-09-06T19:48:17.537Z,14.93
2018-09-06T19:50:47.736Z,15.13
2018-09-06T19:53:18.337Z,13.87
2018-09-06T19:55:49.115Z,12.97
2018-09-06T19:58:19.627Z,14.20
2018-09-06T20:00:49.877Z,13.10
2018-09-06T20:03:21.047Z,13.70
2018-09-06T20:05:51.583Z,14.80
2018-09-06T20:08:22.230Z,15.63
2018-09-06T20:10:52.797Z,15.20
2018-09-06T20:13:23.460Z,13.60
2018-09-06T20:15:54.107Z,14.73
2018-09-06T20:18:24.842Z,15.27
2018-09-06T20:20:55.697Z,14.53
2018-09-06T20:23:26.315Z,16.30
2018-09-06T20:25:57.509Z,15.43
2018-09-06T20:28:28.050Z,14.47
2018-09-06T20:30:58.729Z,15.40
2018-09-06T20:33:29.499Z,15.80
2018-09-06T20:35:59.922Z,16.57
2018-09-06T20:38:30.536Z,17.03
2018-09-06T20:41:01.073Z,14.60
2018-09-06T20:43:31.362Z,14.87
2018-09-06T20:46:02.227Z,13.17
2018-09-06T20:48:32.587Z,14.60
2018-09-06T20:51:03.805Z,14.17
2018-09-06T20:53:34.681Z,14.20
2018-09-06T20:56:05.384Z,15.00
2018-09-06T20:58:36.056Z,14.50
2018-09-06T21:01:06.892Z,15.53
2018-09-06T21:03:37.717Z,14.23
2018-09-06T21:06:09.124Z,14.00
2018-09-06T21:08:39.860Z,15.23
2018-09-06T21:11:10.718Z,14.70
2018-09-06T21:13:41.972Z,16.13
2018-09-06T21:16:13.666Z,15.20
2018-09-06T21:18:44.056Z,14.10
2018-09-06T21:21:14.791Z,16.10
2018-09-06T21:23:45.330Z,15.47
2018-09-06T21:26:16.208Z,14.53
2018-09-06T21:28:46.684Z,15.80
2018-09-06T21:31:17.256Z,16.77
2018-09-06T21:33:47.826Z,16.17
2018-09-06T21:36:18.122Z,14.50
2018-09-06T21:38:49.147Z,15.63
2018-09-06T21:41:19.689Z,15.13
2018-09-06T21:43:50.163Z,15.93
2018-09-06T21:46:20.786Z,15.40
2018-09-06T21:48:51.340Z,15.23
2018-09-06T21:51:22.139Z,15.07
2018-09-06T21:53:52.548Z,14.57
2018-09-06T21:56:22.777Z,14.80
2018-09-06T21:58:53.630Z,14.90
2018-09-06T22:01:24.545Z,17.03
2018-09-06T22:04:08.267Z,15.63
2018-09-06T22:06:39.215Z,17.00
2018-09-06T22:09:11.721Z,15.50
2018-09-06T22:11:41.967Z,15.80
2018-09-06T22:14:12.851Z,14.07
2018-09-06T22:16:44.075Z,15.40
2018-09-06T22:19:15.684Z,16.43
2018-09-06T22:21:46.542Z,15.97
2018-09-06T22:24:17.082Z,15.57
2018-09-06T22:26:47.672Z,16.40
2018-09-06T22:29:18.487Z,16.30
2018-09-06T22:31:49.311Z,16.70
2018-09-06T22:34:20.127Z,17.50
2018-09-06T22:36:50.669Z,16.13
2018-09-06T22:39:23.318Z,15.70
2018-09-06T22:41:54.001Z,17.97
2018-09-06T22:44:24.548Z,17.37
2018-09-06T22:46:55.017Z,16.30
2018-09-06T22:49:25.914Z,15.87
2018-09-06T22:51:57.252Z,15.30
2018-09-06T22:54:28.353Z,16.57
2018-09-06T22:56:59.009Z,16.00
2018-09-06T22:59:30.337Z,14.33
2018-09-06T23:02:00.794Z,15.30
2018-09-06T23:04:31.623Z,15.73
2018-09-06T23:07:02.291Z,16.17
2018-09-06T23:09:33.666Z,16.97
2018-09-06T23:12:04.617Z,17.63
2018-09-06T23:14:35.540Z,14.87
2018-09-06T23:17:06.351Z,16.57
2018-09-06T23:19:36.895Z,14.87
2018-09-06T23:22:07.437Z,17.20
2018-09-06T23:24:41.345Z,16.13
2018-09-06T23:27:11.903Z,13.80
2018-09-06T23:29:42.435Z,16.73
2018-09-06T23:32:13.048Z,15.67
2018-09-06T23:34:43.608Z,15.00
2018-09-06T23:37:14.139Z,14.73
2018-09-06T23:39:44.988Z,15.50
2018-09-06T23:42:15.536Z,15.80
2018-09-06T23:44:46.089Z,15.20
2018-09-06T23:47:16.620Z,15.43
2018-09-06T23:49:47.208Z,16.37
2018-09-06T23:52:18.232Z,15.10
2018-09-06T23:54:49.025Z,16.43
2018-09-06T23:57:19.727Z,17.43
2018-09-06T23:59:50.460Z,17.90
